Pagina principale
METAR-TAF:

METAR-TAF

Aeroporti :

Lannion, Francia

latitudine: 48-45N, longitudine: 003-28W, altezza: 89 m

Osservazione

Il bollettino è stato emesso 41 minuti fa, alle 06:30 UTC
Vento 7 kt da ovest/sud-ovest, variando fra sud-ovest e ovest
Temperature 17°C
Umidità 94%
Pressione 1013 hPa
Visibilità 10 km o più
Cielo coperto ad un'altezza di 600 ft

METAR: LFRO 180630Z AUTO 25007KT 220V280 9999 OVC006 17/16 Q1013

Ora: 09:11 (07:11 UTC)


TAF: mancante

Osservazioni e previsioni meteorologiche di più di 4000 aeroporti (messaggi METAR e TAF).

Le stazioni disponibili sono rappresentate dai dischi gialli e rossi sulla carta.

Puntare il mouse per vedere il nome della stazione.

Clicca sopra per visualizzare le osservazioni e previsioni meteorologiche.

Per cambiare la mappa : fare clic sui pulsanti verdi con una croce nera per ingrandire, il pulsante verde con un trattino per diminuire, o sulla freccia verde per le mappe adiacenti.


METAR-TAF: